createdAt,value
2022-08-18T00:00:46.964Z,0.00
2022-08-18T00:01:47.059Z,0.00
2022-08-18T00:03:01.138Z,0.00
2022-08-18T00:03:55.673Z,0.00
2022-08-18T00:04:48.846Z,0.00
2022-08-18T00:05:46.923Z,0.00
2022-08-18T00:06:46.923Z,0.00
2022-08-18T00:07:47.197Z,0.00
2022-08-18T00:08:46.881Z,0.00
2022-08-18T00:09:46.872Z,0.00
2022-08-18T00:10:46.866Z,0.00
2022-08-18T00:11:46.855Z,0.00
2022-08-18T00:12:46.844Z,0.00
2022-08-18T00:13:46.850Z,0.00
2022-08-18T00:14:46.824Z,0.00
2022-08-18T00:15:49.060Z,0.00
2022-08-18T00:16:46.819Z,0.00
2022-08-18T00:17:46.836Z,0.00
2022-08-18T00:18:46.773Z,0.00
2022-08-18T00:19:48.279Z,0.00
2022-08-18T00:20:46.758Z,0.00
2022-08-18T00:21:46.737Z,0.00
2022-08-18T00:22:46.731Z,0.00
2022-08-18T00:23:46.749Z,0.00
2022-08-18T00:24:48.426Z,0.00
2022-08-18T00:25:46.698Z,0.00
2022-08-18T00:26:46.928Z,0.00
2022-08-18T00:27:46.698Z,0.00
2022-08-18T00:28:46.650Z,0.00
2022-08-18T00:29:46.648Z,0.00
2022-08-18T00:30:46.667Z,0.00
2022-08-18T00:31:46.631Z,0.00
2022-08-18T00:32:46.672Z,0.00
2022-08-18T00:33:46.610Z,0.00
2022-08-18T00:34:46.600Z,0.00
2022-08-18T00:35:46.601Z,0.00
2022-08-18T00:36:46.571Z,0.00
2022-08-18T00:37:46.581Z,0.00
2022-08-18T00:38:46.542Z,0.00
2022-08-18T00:39:47.833Z,0.00
2022-08-18T00:40:46.544Z,0.00
2022-08-18T00:41:46.522Z,0.00
2022-08-18T00:42:46.607Z,0.00
2022-08-18T00:43:46.516Z,0.00
2022-08-18T00:44:46.501Z,0.00
2022-08-18T00:45:46.473Z,0.00
2022-08-18T00:46:46.482Z,0.00
2022-08-18T00:47:46.524Z,0.00
2022-08-18T00:48:48.288Z,0.00
2022-08-18T00:49:46.432Z,0.00
2022-08-18T00:50:46.414Z,0.00
2022-08-18T00:51:46.440Z,0.00
2022-08-18T00:52:46.409Z,0.00
2022-08-18T00:53:46.407Z,0.00
2022-08-18T00:54:46.387Z,0.00
2022-08-18T00:55:53.884Z,0.00
2022-08-18T00:56:47.348Z,0.00
2022-08-18T00:57:46.360Z,0.00
2022-08-18T00:58:46.336Z,0.00
2022-08-18T00:59:46.327Z,0.00
2022-08-18T01:00:46.377Z,0.00
2022-08-18T01:01:46.319Z,0.00
2022-08-18T01:02:46.317Z,0.00
2022-08-18T01:03:46.289Z,0.00
2022-08-18T01:04:46.270Z,0.00
2022-08-18T01:05:46.280Z,0.00
2022-08-18T01:06:46.239Z,0.00
2022-08-18T01:07:46.240Z,0.00
2022-08-18T01:08:46.240Z,0.00
2022-08-18T01:09:46.221Z,0.00
2022-08-18T01:10:46.249Z,0.00
2022-08-18T01:11:46.225Z,0.00
2022-08-18T01:12:47.053Z,0.00
2022-08-18T01:13:46.185Z,0.00
2022-08-18T01:14:46.186Z,0.00
2022-08-18T01:15:46.178Z,0.00
2022-08-18T01:16:53.183Z,0.00
2022-08-18T01:17:47.176Z,0.00
2022-08-18T01:18:46.126Z,0.00
2022-08-18T01:19:46.127Z,0.00
2022-08-18T01:20:46.138Z,0.00
2022-08-18T01:21:46.142Z,0.00
2022-08-18T01:22:46.088Z,0.00
2022-08-18T01:23:46.078Z,0.00
2022-08-18T01:24:46.069Z,0.00
2022-08-18T01:25:46.058Z,0.00
2022-08-18T01:26:46.060Z,0.00
2022-08-18T01:27:46.043Z,0.00
2022-08-18T01:28:46.028Z,0.00
2022-08-18T01:29:46.019Z,0.00
2022-08-18T01:30:46.019Z,0.00
2022-08-18T01:31:53.415Z,0.00
2022-08-18T01:32:46.990Z,0.00
2022-08-18T01:33:45.983Z,0.00
2022-08-18T01:34:45.962Z,0.00
2022-08-18T01:35:45.954Z,0.00
2022-08-18T01:36:45.950Z,0.00
2022-08-18T01:37:45.952Z,0.00
2022-08-18T01:38:45.923Z,0.00
2022-08-18T01:41:01.001Z,0.00
2022-08-18T01:41:23.543Z,0.00
2022-08-18T01:41:46.898Z,0.00
2022-08-18T01:42:45.875Z,0.00
2022-08-18T01:43:45.883Z,0.00
2022-08-18T01:44:45.872Z,0.00
2022-08-18T01:45:45.854Z,0.00
2022-08-18T01:46:45.894Z,0.00
2022-08-18T01:47:47.789Z,0.00
2022-08-18T01:48:46.806Z,0.00
2022-08-18T01:49:45.804Z,0.00
2022-08-18T01:50:45.805Z,0.00
2022-08-18T01:51:45.786Z,0.00
2022-08-18T01:52:45.780Z,0.00
2022-08-18T01:53:45.776Z,0.00
2022-08-18T01:54:45.768Z,0.00
2022-08-18T01:55:45.760Z,0.00
2022-08-18T01:56:45.740Z,0.00
2022-08-18T01:57:45.814Z,0.00
2022-08-18T01:58:45.708Z,0.00
2022-08-18T01:59:45.700Z,0.00
2022-08-18T02:00:45.700Z,0.00
2022-08-18T02:01:48.786Z,0.00
2022-08-18T02:02:46.660Z,0.00
2022-08-18T02:03:45.660Z,0.00
2022-08-18T02:04:45.639Z,0.00
2022-08-18T02:05:45.653Z,0.00
2022-08-18T02:06:47.809Z,0.00
2022-08-18T02:07:45.726Z,0.00
2022-08-18T02:08:46.473Z,0.00
2022-08-18T02:09:46.590Z,0.00
2022-08-18T02:10:45.581Z,0.00
2022-08-18T02:11:45.572Z,0.00
2022-08-18T02:12:45.572Z,0.00
2022-08-18T02:13:45.543Z,0.00
2022-08-18T02:14:45.555Z,0.00
2022-08-18T02:15:45.533Z,0.00
2022-08-18T02:16:45.515Z,0.00
2022-08-18T02:17:45.602Z,0.00
2022-08-18T02:18:48.138Z,0.00
2022-08-18T02:19:45.484Z,0.00
2022-08-18T02:20:45.475Z,0.00
2022-08-18T02:21:45.475Z,0.00
2022-08-18T02:22:45.449Z,0.00
2022-08-18T02:23:53.185Z,0.00
2022-08-18T02:24:46.425Z,0.00
2022-08-18T02:25:45.436Z,0.00
2022-08-18T02:26:45.427Z,0.00
2022-08-18T02:27:45.479Z,0.00
2022-08-18T02:28:45.387Z,0.00
2022-08-18T02:29:45.391Z,0.00
2022-08-18T02:30:45.380Z,0.00
2022-08-18T02:31:45.357Z,0.00
2022-08-18T02:32:45.358Z,0.00
2022-08-18T02:33:46.999Z,0.00
2022-08-18T02:34:46.327Z,0.00
2022-08-18T02:35:45.329Z,0.00
2022-08-18T02:36:45.303Z,0.00
2022-08-18T02:37:45.311Z,0.00
2022-08-18T02:38:45.279Z,0.00
2022-08-18T02:39:46.314Z,0.00
2022-08-18T02:40:45.250Z,0.00
2022-08-18T02:41:45.252Z,0.00
2022-08-18T02:42:45.250Z,0.00
2022-08-18T02:43:45.255Z,0.00
2022-08-18T02:44:45.225Z,0.00
2022-08-18T02:45:45.202Z,0.00
2022-08-18T02:46:45.213Z,0.00
2022-08-18T02:47:45.250Z,0.00
2022-08-18T02:48:45.173Z,0.00
2022-08-18T02:49:45.173Z,0.00
2022-08-18T02:50:45.154Z,0.00
2022-08-18T02:51:45.164Z,0.00
2022-08-18T02:52:45.127Z,0.00
2022-08-18T02:53:45.134Z,0.00
2022-08-18T02:54:45.113Z,0.00
2022-08-18T02:55:45.102Z,0.00
2022-08-18T02:56:45.095Z,0.00
2022-08-18T02:57:45.114Z,0.00
2022-08-18T02:58:45.066Z,0.00
2022-08-18T02:59:47.402Z,0.00
2022-08-18T03:00:45.069Z,0.00
2022-08-18T03:01:45.203Z,0.00
2022-08-18T03:02:45.025Z,0.00
2022-08-18T03:03:45.028Z,0.00
2022-08-18T03:04:45.007Z,0.00
2022-08-18T03:05:45.015Z,0.00
2022-08-18T03:06:45.364Z,0.00
2022-08-18T03:07:45.039Z,0.00
2022-08-18T03:08:44.958Z,0.00
2022-08-18T03:09:44.959Z,0.00
2022-08-18T03:10:44.950Z,0.00
2022-08-18T03:11:44.929Z,0.00
2022-08-18T03:12:44.931Z,0.00
2022-08-18T03:13:44.916Z,0.00
2022-08-18T03:14:44.900Z,0.00
2022-08-18T03:15:44.890Z,0.00
2022-08-18T03:16:52.642Z,0.00
2022-08-18T03:17:45.883Z,0.00
2022-08-18T03:18:44.861Z,0.00
2022-08-18T03:19:44.852Z,0.00
2022-08-18T03:20:44.851Z,0.00
2022-08-18T03:21:44.821Z,0.00
2022-08-18T03:22:44.813Z,0.00
2022-08-18T03:23:44.801Z,0.00
2022-08-18T03:24:45.793Z,0.00
2022-08-18T03:25:44.816Z,0.00
2022-08-18T03:26:44.764Z,0.00
2022-08-18T03:27:44.866Z,0.00
2022-08-18T03:28:44.762Z,0.00
2022-08-18T03:29:44.743Z,0.00
2022-08-18T03:30:44.724Z,0.00
2022-08-18T03:31:44.716Z,0.00
2022-08-18T03:32:45.931Z,0.00
2022-08-18T03:33:44.705Z,0.00
2022-08-18T03:34:44.686Z,0.00
2022-08-18T03:35:44.676Z,0.00
2022-08-18T03:36:44.665Z,0.00
2022-08-18T03:37:44.673Z,0.00
2022-08-18T03:38:44.648Z,0.00
2022-08-18T03:39:45.684Z,0.00
2022-08-18T03:40:44.617Z,0.00
2022-08-18T03:41:58.312Z,0.00
2022-08-18T03:42:45.607Z,0.00
2022-08-18T03:43:50.726Z,0.00
2022-08-18T03:44:45.579Z,0.00
2022-08-18T03:45:44.570Z,0.00
2022-08-18T03:46:44.569Z,0.00
2022-08-18T03:47:44.562Z,0.00
2022-08-18T03:48:44.531Z,0.00
2022-08-18T03:49:44.529Z,0.00
2022-08-18T03:50:44.511Z,0.00
2022-08-18T03:51:44.515Z,0.00
2022-08-18T03:52:44.491Z,0.00
2022-08-18T03:53:44.480Z,0.00
2022-08-18T03:54:44.494Z,0.00
2022-08-18T03:55:44.471Z,0.00
2022-08-18T03:56:44.490Z,0.00
2022-08-18T03:57:44.558Z,0.00
2022-08-18T03:58:44.431Z,4.00
2022-08-18T03:59:44.432Z,4.00
2022-08-18T04:00:44.407Z,4.00
2022-08-18T04:01:44.489Z,0.00
2022-08-18T04:02:44.386Z,4.00
2022-08-18T04:03:44.415Z,4.00
2022-08-18T04:04:44.395Z,4.00
2022-08-18T04:05:44.357Z,8.00
2022-08-18T04:06:44.345Z,8.00
2022-08-18T04:07:44.462Z,8.00
2022-08-18T04:08:44.325Z,8.00
2022-08-18T04:09:44.335Z,12.00
2022-08-18T04:10:44.305Z,12.00
2022-08-18T04:11:44.426Z,16.00
2022-08-18T04:12:44.296Z,20.00
2022-08-18T04:13:44.286Z,20.00
2022-08-18T04:14:44.279Z,24.00
2022-08-18T04:15:44.268Z,32.00
2022-08-18T04:16:44.263Z,36.00
2022-08-18T04:17:44.232Z,44.00
2022-08-18T04:18:45.239Z,48.00
2022-08-18T04:19:44.219Z,48.00
2022-08-18T04:20:58.942Z,52.00
2022-08-18T04:21:45.183Z,60.00
2022-08-18T04:22:44.169Z,68.00
2022-08-18T04:23:44.437Z,72.00
2022-08-18T04:24:44.157Z,76.00
2022-08-18T04:25:44.180Z,80.00
2022-08-18T04:26:44.130Z,84.00
2022-08-18T04:27:44.131Z,92.00
2022-08-18T04:28:44.131Z,100.00
2022-08-18T04:29:44.114Z,112.00
2022-08-18T04:30:44.162Z,124.00
2022-08-18T04:31:44.111Z,136.00
2022-08-18T04:32:44.092Z,144.00
2022-08-18T04:33:44.052Z,152.00
2022-08-18T04:34:45.066Z,156.00
2022-08-18T04:35:44.062Z,160.00
2022-08-18T04:36:44.033Z,168.00
2022-08-18T04:37:44.014Z,180.00
2022-08-18T04:38:44.004Z,184.00
2022-08-18T04:39:44.120Z,184.00
2022-08-18T04:40:44.032Z,192.00
2022-08-18T04:41:44.101Z,200.00
2022-08-18T04:42:43.957Z,204.00
2022-08-18T04:43:43.954Z,208.00
2022-08-18T04:44:44.039Z,216.00
2022-08-18T04:45:43.945Z,228.00
2022-08-18T04:46:43.985Z,244.00
2022-08-18T04:47:43.906Z,260.00
2022-08-18T04:48:43.936Z,276.00
2022-08-18T04:49:43.887Z,288.00
2022-08-18T04:50:43.887Z,308.00
2022-08-18T04:52:37.667Z,324.00
2022-08-18T04:52:44.847Z,336.00
2022-08-18T04:53:43.838Z,352.00
2022-08-18T04:54:44.897Z,384.00
2022-08-18T04:55:43.867Z,420.00
2022-08-18T04:56:43.863Z,460.00
2022-08-18T04:57:44.469Z,492.00
2022-08-18T04:58:43.860Z,524.00
2022-08-18T04:59:44.480Z,556.00
2022-08-18T05:00:44.612Z,588.00
2022-08-18T05:01:44.556Z,624.00
2022-08-18T05:02:43.812Z,652.00
2022-08-18T05:03:50.210Z,680.00
2022-08-18T05:04:44.800Z,704.00
2022-08-18T05:05:44.423Z,732.00
2022-08-18T05:06:43.765Z,752.00
2022-08-18T05:07:43.733Z,768.00
2022-08-18T05:08:43.672Z,788.00
2022-08-18T05:09:43.792Z,816.00
2022-08-18T05:10:43.742Z,856.00
2022-08-18T05:11:43.713Z,892.00
2022-08-18T05:12:43.662Z,924.00
2022-08-18T05:13:43.686Z,952.00
2022-08-18T05:14:43.622Z,992.00
2022-08-18T05:16:09.044Z,1036.00
2022-08-18T05:16:48.587Z,1080.00
2022-08-18T05:17:43.614Z,1128.00
2022-08-18T05:18:43.664Z,1180.00
2022-08-18T05:19:44.157Z,1228.00
2022-08-18T05:20:43.880Z,1280.00
2022-08-18T05:21:43.607Z,1340.00
2022-08-18T05:22:43.534Z,1400.00
2022-08-18T05:23:43.580Z,1472.00
2022-08-18T05:24:43.837Z,1552.00
2022-08-18T05:25:43.660Z,1624.00
2022-08-18T05:26:43.538Z,1664.00
2022-08-18T05:27:43.506Z,1676.00
2022-08-18T05:28:43.483Z,1664.00
2022-08-18T05:29:45.917Z,1624.00
2022-08-18T05:30:43.685Z,1604.00
2022-08-18T05:31:43.439Z,1596.00
2022-08-18T05:32:48.557Z,1608.00
2022-08-18T05:33:44.469Z,1632.00
2022-08-18T05:34:43.401Z,1648.00
2022-08-18T05:35:43.393Z,1648.00
2022-08-18T05:36:43.390Z,1656.00
2022-08-18T05:37:43.391Z,1660.00
2022-08-18T05:38:43.381Z,1660.00
2022-08-18T05:39:43.413Z,1684.00
2022-08-18T05:40:43.342Z,1704.00
2022-08-18T05:41:43.349Z,1716.00
2022-08-18T05:42:43.402Z,1748.00
2022-08-18T05:43:51.224Z,1788.00
2022-08-18T05:44:44.381Z,1808.00
2022-08-18T05:45:43.303Z,1812.00
2022-08-18T05:46:43.283Z,1804.00
2022-08-18T05:47:43.282Z,1780.00
2022-08-18T05:48:43.924Z,1740.00
2022-08-18T05:49:43.255Z,1704.00
2022-08-18T05:50:43.244Z,1656.00
2022-08-18T05:51:43.235Z,1600.00
2022-08-18T05:52:43.274Z,1568.00
2022-08-18T05:53:43.233Z,1540.00
2022-08-18T05:54:43.338Z,1524.00
2022-08-18T05:55:47.643Z,1528.00
2022-08-18T05:56:43.913Z,1540.00
2022-08-18T05:57:43.275Z,1580.00
2022-08-18T05:58:43.276Z,1644.00
2022-08-18T05:59:43.157Z,1708.00
2022-08-18T06:00:44.656Z,1764.00
2022-08-18T06:01:43.107Z,1804.00
2022-08-18T06:02:44.681Z,1848.00
2022-08-18T06:03:45.106Z,1896.00
2022-08-18T06:04:47.206Z,1924.00
2022-08-18T06:05:43.089Z,1964.00
2022-08-18T06:06:47.503Z,1988.00
2022-08-18T06:07:43.049Z,2008.00
2022-08-18T06:08:43.769Z,2056.00
2022-08-18T06:09:43.129Z,2120.00
2022-08-18T06:10:43.140Z,2184.00
2022-08-18T06:11:43.030Z,2260.00
2022-08-18T06:12:47.087Z,2340.00
2022-08-18T06:13:43.041Z,2408.00
2022-08-18T06:14:43.555Z,2456.00
2022-08-18T06:15:43.506Z,2524.00
2022-08-18T06:16:45.382Z,2596.00
2022-08-18T06:17:43.768Z,2668.00
2022-08-18T06:18:43.647Z,2720.00
2022-08-18T06:19:42.971Z,2768.00
2022-08-18T06:20:42.983Z,2812.00
2022-08-18T06:21:42.903Z,2840.00
2022-08-18T06:22:52.071Z,2840.00
2022-08-18T06:23:43.893Z,2808.00
2022-08-18T06:24:42.878Z,2708.00
2022-08-18T06:25:42.904Z,2604.00
2022-08-18T06:26:42.893Z,2556.00
2022-08-18T06:27:42.824Z,2492.00
2022-08-18T06:28:42.857Z,2504.00
2022-08-18T06:29:42.814Z,2560.00
2022-08-18T06:30:42.799Z,2600.00
2022-08-18T06:31:42.786Z,2620.00
2022-08-18T06:32:42.885Z,2644.00
2022-08-18T06:33:42.846Z,2640.00
2022-08-18T06:34:42.771Z,2660.00
2022-08-18T06:35:42.777Z,2680.00
2022-08-18T06:36:42.767Z,2712.00
2022-08-18T06:37:42.718Z,2768.00
2022-08-18T06:38:45.775Z,2848.00
2022-08-18T06:39:42.783Z,2904.00
2022-08-18T06:40:42.759Z,2952.00
2022-08-18T06:41:43.850Z,2996.00
2022-08-18T06:42:42.712Z,3032.00
2022-08-18T06:43:42.669Z,3092.00
2022-08-18T06:44:42.687Z,3316.00
2022-08-18T06:45:42.660Z,3376.00
2022-08-18T06:46:42.651Z,3436.00
2022-08-18T06:47:42.611Z,3504.00
2022-08-18T06:48:42.611Z,3568.00
2022-08-18T06:49:42.642Z,3624.00
2022-08-18T06:50:43.714Z,3672.00
2022-08-18T06:51:42.571Z,3724.00
2022-08-18T06:52:42.562Z,3780.00
2022-08-18T06:53:42.553Z,3840.00
2022-08-18T06:54:42.592Z,3900.00
2022-08-18T06:55:43.543Z,3944.00
2022-08-18T06:56:42.514Z,3992.00
2022-08-18T06:57:42.560Z,4028.00
2022-08-18T06:58:42.495Z,4056.00
2022-08-18T06:59:42.545Z,4092.00
2022-08-18T07:00:42.558Z,4128.00
2022-08-18T07:01:43.516Z,4184.00
2022-08-18T07:02:42.445Z,4240.00
2022-08-18T07:03:42.467Z,4300.00
2022-08-18T07:04:42.446Z,4372.00
2022-08-18T07:05:42.425Z,4448.00
2022-08-18T07:06:42.407Z,4528.00
2022-08-18T07:07:42.399Z,4604.00
2022-08-18T07:08:42.388Z,4664.00
2022-08-18T07:09:42.379Z,4724.00
2022-08-18T07:10:42.368Z,4768.00
2022-08-18T07:11:42.352Z,4784.00
2022-08-18T07:12:42.369Z,4776.00
2022-08-18T07:13:42.349Z,4768.00
2022-08-18T07:14:42.339Z,4736.00
2022-08-18T07:15:42.360Z,4692.00
2022-08-18T07:16:59.262Z,4668.00
2022-08-18T07:17:53.122Z,4692.00
2022-08-18T07:18:43.313Z,4756.00
2022-08-18T07:19:42.999Z,4836.00
2022-08-18T07:20:42.331Z,4876.00
2022-08-18T07:21:42.950Z,4852.00
2022-08-18T07:22:42.267Z,4792.00
2022-08-18T07:23:44.251Z,4708.00
2022-08-18T07:24:42.333Z,4632.00
2022-08-18T07:25:42.921Z,4532.00
2022-08-18T07:26:42.203Z,4392.00
2022-08-18T07:27:43.263Z,4208.00
2022-08-18T07:28:42.193Z,4028.00
2022-08-18T07:29:42.434Z,3840.00
2022-08-18T07:31:00.304Z,3660.00
2022-08-18T07:31:44.223Z,3516.00
2022-08-18T07:32:42.203Z,3392.00
2022-08-18T07:33:42.868Z,3204.00
2022-08-18T07:34:42.135Z,2968.00
2022-08-18T07:35:43.815Z,2736.00
2022-08-18T07:36:42.138Z,2516.00
2022-08-18T07:37:42.454Z,2288.00
2022-08-18T07:38:43.747Z,2128.00
2022-08-18T07:39:44.108Z,2108.00
2022-08-18T07:40:43.108Z,2112.00
2022-08-18T07:41:42.058Z,2076.00
2022-08-18T07:43:00.486Z,2012.00
2022-08-18T07:43:43.028Z,1896.00
2022-08-18T07:44:41.998Z,1836.00
2022-08-18T07:45:42.041Z,1740.00
2022-08-18T07:46:42.008Z,1636.00
2022-08-18T07:47:41.960Z,1508.00
2022-08-18T07:48:41.962Z,1364.00
2022-08-18T07:49:59.715Z,1268.00
2022-08-18T07:50:57.951Z,1224.00
2022-08-18T07:51:42.927Z,1232.00
2022-08-18T07:52:47.019Z,1284.00
2022-08-18T07:53:42.961Z,1400.00
2022-08-18T07:54:49.325Z,1576.00
2022-08-18T07:55:42.872Z,1768.00
2022-08-18T07:56:41.882Z,1976.00
2022-08-18T07:57:42.238Z,2152.00
2022-08-18T07:58:41.852Z,2208.00
2022-08-18T07:59:41.834Z,2280.00
2022-08-18T08:00:58.086Z,2340.00
2022-08-18T08:01:42.875Z,2392.00
2022-08-18T08:02:41.838Z,2384.00
2022-08-18T08:03:41.809Z,2328.00
2022-08-18T08:04:41.801Z,2236.00
2022-08-18T08:05:41.815Z,2116.00
2022-08-18T08:06:47.711Z,1980.00
2022-08-18T08:07:42.778Z,1824.00
2022-08-18T08:08:41.865Z,1716.00
2022-08-18T08:09:41.717Z,1652.00
2022-08-18T08:10:41.767Z,1636.00
2022-08-18T08:11:41.714Z,1636.00
2022-08-18T08:12:41.705Z,1628.00
2022-08-18T08:13:55.214Z,1648.00
2022-08-18T08:14:42.720Z,1672.00
2022-08-18T08:15:41.716Z,1704.00
2022-08-18T08:16:41.655Z,1748.00
2022-08-18T08:17:41.654Z,1772.00
2022-08-18T08:18:41.650Z,1720.00
2022-08-18T08:20:00.020Z,1664.00
2022-08-18T08:20:42.620Z,1644.00
2022-08-18T08:21:41.588Z,1664.00
2022-08-18T08:22:41.610Z,1724.00
2022-08-18T08:23:44.995Z,1828.00
2022-08-18T08:24:41.592Z,1960.00
2022-08-18T08:25:46.229Z,2148.00
2022-08-18T08:26:42.543Z,2420.00
2022-08-18T08:27:41.551Z,2760.00
2022-08-18T08:28:42.201Z,3132.00
2022-08-18T08:29:41.553Z,3464.00
2022-08-18T08:30:42.512Z,3748.00
2022-08-18T08:31:41.512Z,3940.00
2022-08-18T08:32:42.621Z,4068.00
2022-08-18T08:33:41.497Z,4208.00
2022-08-18T08:34:42.191Z,4324.00
2022-08-18T08:35:49.504Z,4436.00
2022-08-18T08:36:43.135Z,4572.00
2022-08-18T08:37:49.534Z,4808.00
2022-08-18T08:38:44.417Z,5140.00
2022-08-18T08:39:41.466Z,5560.00
2022-08-18T08:40:41.632Z,5928.00
2022-08-18T08:41:41.388Z,6168.00
2022-08-18T08:42:41.420Z,6164.00
2022-08-18T08:43:41.437Z,6260.00
2022-08-18T08:44:58.495Z,6460.00
2022-08-18T08:45:42.406Z,6712.00
2022-08-18T08:46:41.408Z,6976.00
2022-08-18T08:47:41.309Z,7148.00
2022-08-18T08:48:41.318Z,7200.00
2022-08-18T08:49:41.325Z,7048.00
2022-08-18T08:50:41.374Z,6852.00
2022-08-18T08:51:41.319Z,6740.00
2022-08-18T08:52:41.268Z,6592.00
2022-08-18T08:53:41.288Z,6392.00
2022-08-18T08:54:41.239Z,6060.00
2022-08-18T08:55:41.232Z,5732.00
2022-08-18T08:56:41.245Z,5492.00
2022-08-18T08:57:41.221Z,5300.00
2022-08-18T08:58:41.191Z,5196.00
2022-08-18T08:59:41.203Z,5320.00
2022-08-18T09:00:41.173Z,5640.00
2022-08-18T09:01:41.230Z,6128.00
2022-08-18T09:02:48.926Z,6720.00
2022-08-18T09:03:42.132Z,7272.00
2022-08-18T09:04:54.868Z,7464.00
2022-08-18T09:05:42.116Z,7348.00
2022-08-18T09:06:41.104Z,7108.00
2022-08-18T09:07:41.136Z,6984.00
2022-08-18T09:08:41.145Z,6976.00
2022-08-18T09:09:41.073Z,7192.00
2022-08-18T09:10:41.065Z,7556.00
2022-08-18T09:11:42.054Z,7976.00
2022-08-18T09:12:41.048Z,8080.00
2022-08-18T09:13:42.061Z,8040.00
2022-08-18T09:14:41.040Z,8004.00
2022-08-18T09:15:41.734Z,7852.00
2022-08-18T09:16:41.050Z,7572.00
2022-08-18T09:17:41.026Z,7372.00
2022-08-18T09:18:41.001Z,7096.00
2022-08-18T09:19:40.978Z,6840.00
2022-08-18T09:20:42.759Z,6416.00
2022-08-18T09:21:40.942Z,5904.00
2022-08-18T09:22:40.949Z,5548.00
2022-08-18T09:23:41.049Z,5372.00
2022-08-18T09:24:40.913Z,5232.00
2022-08-18T09:25:40.923Z,5184.00
2022-08-18T09:26:40.902Z,5584.00
2022-08-18T09:28:07.292Z,5904.00
2022-08-18T09:28:41.941Z,5696.00
2022-08-18T09:29:44.000Z,5708.00
2022-08-18T09:30:40.879Z,5572.00
2022-08-18T09:31:40.902Z,5544.00
2022-08-18T09:32:40.823Z,5492.00
2022-08-18T09:33:40.834Z,6496.00
2022-08-18T09:34:40.803Z,6364.00
2022-08-18T09:35:40.794Z,6116.00
2022-08-18T09:36:40.875Z,5952.00
2022-08-18T09:37:41.350Z,6220.00
2022-08-18T09:38:40.756Z,7408.00
2022-08-18T09:39:40.822Z,8212.00
2022-08-18T09:41:01.916Z,8316.00
2022-08-18T09:41:41.737Z,9360.00
2022-08-18T09:43:41.706Z,9864.00
2022-08-18T09:44:40.706Z,9684.00
2022-08-18T09:45:40.758Z,9220.00
2022-08-18T09:46:40.748Z,9056.00
2022-08-18T09:47:40.687Z,8372.00
2022-08-18T09:48:43.293Z,8480.00
2022-08-18T09:49:40.678Z,8252.00
2022-08-18T09:50:37.488Z,9556.00
2022-08-18T09:50:41.721Z,7420.00
2022-08-18T09:51:41.214Z,7048.00
2022-08-18T09:52:40.612Z,6924.00
2022-08-18T09:53:40.689Z,7716.00
2022-08-18T09:54:41.307Z,7416.00
2022-08-18T09:55:40.624Z,7240.00
2022-08-18T09:58:41.575Z,8532.00
2022-08-18T09:59:40.556Z,8120.00
2022-08-18T10:00:40.565Z,7328.00
2022-08-18T10:01:40.738Z,7324.00
2022-08-18T10:02:40.614Z,7176.00
2022-08-18T10:03:40.525Z,6740.00
2022-08-18T10:04:40.495Z,6828.00
2022-08-18T10:05:40.499Z,6944.00
2022-08-18T10:07:43.354Z,6812.00
2022-08-18T10:08:42.801Z,6712.00
2022-08-18T10:09:43.952Z,7876.00
2022-08-18T10:11:01.142Z,8420.00
2022-08-18T10:11:41.434Z,9004.00
2022-08-18T10:12:40.401Z,9128.00
2022-08-18T10:13:42.680Z,8544.00
2022-08-18T10:14:41.397Z,7736.00
2022-08-18T10:15:40.421Z,7148.00
2022-08-18T10:17:13.462Z,7068.00
2022-08-18T10:17:42.027Z,7244.00
2022-08-18T10:18:40.381Z,7424.00
2022-08-18T10:19:40.400Z,7616.00
2022-08-18T10:20:41.285Z,7752.00
2022-08-18T10:21:40.300Z,8028.00
2022-08-18T10:22:40.340Z,8236.00
2022-08-18T10:23:47.967Z,8328.00
2022-08-18T10:24:41.299Z,8304.00
2022-08-18T10:25:41.004Z,8132.00
2022-08-18T10:26:40.269Z,7908.00
2022-08-18T10:27:41.270Z,7752.00
2022-08-18T10:28:40.265Z,7748.00
2022-08-18T10:29:40.228Z,8092.00
2022-08-18T10:30:57.647Z,8624.00
2022-08-18T10:31:41.275Z,10140.00
2022-08-18T10:32:40.318Z,10512.00
2022-08-18T10:33:40.207Z,9808.00
2022-08-18T10:34:40.226Z,9624.00
2022-08-18T10:35:41.166Z,9312.00
2022-08-18T10:36:40.188Z,8900.00
2022-08-18T10:37:40.136Z,8784.00
2022-08-18T10:38:40.124Z,7920.00
2022-08-18T10:39:41.972Z,8216.00
2022-08-18T10:40:40.105Z,8292.00
2022-08-18T10:41:41.510Z,8268.00
2022-08-18T10:42:40.078Z,9520.00
2022-08-18T10:44:41.069Z,8296.00
2022-08-18T10:45:40.079Z,8856.00
2022-08-18T10:46:42.523Z,9168.00
2022-08-18T10:47:41.100Z,9376.00
2022-08-18T10:48:40.324Z,9880.00
2022-08-18T10:49:41.526Z,11184.00
2022-08-18T10:50:40.992Z,12148.00
2022-08-18T10:51:59.206Z,11296.00
2022-08-18T10:52:46.192Z,11676.00
2022-08-18T10:53:44.365Z,11208.00
2022-08-18T10:54:51.784Z,12080.00
2022-08-18T10:55:49.078Z,12476.00
2022-08-18T10:56:40.955Z,11724.00
2022-08-18T10:57:39.968Z,11568.00
2022-08-18T10:58:39.951Z,11348.00
2022-08-18T10:59:41.439Z,11060.00
2022-08-18T11:00:40.974Z,11980.00
2022-08-18T11:01:39.875Z,11732.00
2022-08-18T11:02:39.885Z,12144.00
2022-08-18T11:03:51.303Z,11976.00
2022-08-18T11:04:40.856Z,11792.00
2022-08-18T11:05:39.907Z,12196.00
2022-08-18T11:06:39.847Z,12200.00
2022-08-18T11:07:39.842Z,12512.00
2022-08-18T11:08:39.836Z,12032.00
2022-08-18T11:09:41.523Z,12128.00
2022-08-18T11:10:57.543Z,11896.00
2022-08-18T11:11:53.115Z,10796.00
2022-08-18T11:12:40.799Z,11800.00
2022-08-18T11:13:39.789Z,13104.00
2022-08-18T11:14:40.022Z,13196.00
2022-08-18T11:15:39.761Z,13272.00
2022-08-18T11:16:41.477Z,12964.00
2022-08-18T11:17:40.444Z,9908.00
2022-08-18T11:18:43.281Z,7712.00
2022-08-18T11:19:41.924Z,6660.00
2022-08-18T11:20:40.312Z,6700.00
2022-08-18T11:21:42.016Z,7380.00
2022-08-18T11:22:39.680Z,8056.00
2022-08-18T11:23:39.961Z,8312.00
2022-08-18T11:24:39.683Z,9288.00
2022-08-18T11:25:39.639Z,10772.00
2022-08-18T11:26:39.666Z,11860.00
2022-08-18T11:27:40.495Z,13640.00
2022-08-18T11:28:44.860Z,14544.00
2022-08-18T11:29:40.615Z,14280.00
2022-08-18T11:30:42.245Z,12668.00
2022-08-18T11:31:39.565Z,12012.00
2022-08-18T11:32:51.337Z,10452.00
2022-08-18T11:33:40.677Z,10340.00
2022-08-18T11:35:40.598Z,10720.00
2022-08-18T11:36:39.608Z,11956.00
2022-08-18T11:37:49.279Z,13648.00
2022-08-18T11:38:42.075Z,14716.00
2022-08-18T11:39:39.522Z,15092.00
2022-08-18T11:41:48.940Z,15864.00
2022-08-18T11:42:40.641Z,16320.00
2022-08-18T11:43:42.420Z,16544.00
2022-08-18T11:44:39.540Z,15928.00
2022-08-18T11:45:39.442Z,14364.00
2022-08-18T11:46:39.474Z,12108.00
2022-08-18T11:47:39.399Z,10380.00
2022-08-18T11:48:50.869Z,11068.00
2022-08-18T11:49:40.372Z,11964.00
2022-08-18T11:50:39.483Z,12896.00
2022-08-18T11:51:40.354Z,14008.00
2022-08-18T11:52:39.343Z,14800.00
2022-08-18T11:53:39.349Z,14516.00
2022-08-18T11:54:39.323Z,14860.00
2022-08-18T11:55:40.314Z,15740.00
2022-08-18T11:56:40.297Z,16096.00
2022-08-18T11:57:42.081Z,16096.00
2022-08-18T11:58:40.289Z,16224.00
2022-08-18T11:59:54.672Z,16736.00
2022-08-18T12:00:43.213Z,17856.00
2022-08-18T12:02:40.245Z,14776.00
2022-08-18T12:03:39.230Z,15076.00
2022-08-18T12:04:39.239Z,15868.00
2022-08-18T12:05:46.010Z,16800.00
2022-08-18T12:06:40.239Z,17024.00
2022-08-18T12:07:39.187Z,17024.00
2022-08-18T12:08:56.637Z,17920.00
2022-08-18T12:10:18.105Z,20576.00
2022-08-18T12:10:40.149Z,21536.00
2022-08-18T12:11:41.412Z,21920.00
2022-08-18T12:12:39.132Z,21856.00
2022-08-18T12:13:39.160Z,22432.00
2022-08-18T12:14:39.112Z,20192.00
2022-08-18T12:15:46.958Z,22048.00
2022-08-18T12:16:40.150Z,23488.00
2022-08-18T12:17:40.082Z,24000.00
2022-08-18T12:18:39.075Z,24288.00
2022-08-18T12:19:39.125Z,24480.00
2022-08-18T12:20:39.085Z,25024.00
2022-08-18T12:21:39.043Z,26144.00
2022-08-18T12:22:39.035Z,27552.00
2022-08-18T12:23:49.723Z,35808.00
2022-08-18T12:24:40.236Z,48352.00
2022-08-18T12:25:39.008Z,52768.00
2022-08-18T12:26:47.309Z,53024.00
2022-08-18T12:27:39.999Z,51904.00
2022-08-18T12:28:39.052Z,54080.00
2022-08-18T12:29:43.440Z,55264.00
2022-08-18T12:30:42.190Z,58016.00
2022-08-18T12:31:42.632Z,59904.00
2022-08-18T12:34:39.951Z,59712.00
2022-08-18T12:35:41.861Z,59040.00
2022-08-18T12:36:38.892Z,20832.00
2022-08-18T12:38:39.864Z,22912.00